createdAt,value
2018-01-25T00:00:18.122Z,101859.28
2018-01-25T00:02:45.729Z,101865.70
2018-01-25T00:05:13.320Z,101865.73
2018-01-25T00:07:40.893Z,101850.61
2018-01-25T00:10:08.649Z,101843.86
2018-01-25T00:12:36.275Z,101848.87
2018-01-25T00:15:03.855Z,101851.20
2018-01-25T00:17:31.454Z,101848.52
2018-01-25T00:19:59.011Z,101836.27
2018-01-25T00:22:26.660Z,101838.02
2018-01-25T00:24:54.288Z,101832.31
2018-01-25T00:27:21.867Z,101836.03
2018-01-25T00:29:49.557Z,101836.58
2018-01-25T00:32:17.167Z,101829.23
2018-01-25T00:34:44.749Z,101825.55
2018-01-25T00:37:12.319Z,101822.57
2018-01-25T00:39:40.141Z,101825.62
2018-01-25T00:42:07.724Z,101808.84
2018-01-25T00:44:35.307Z,101816.52
2018-01-25T00:47:02.932Z,101813.76
2018-01-25T00:49:30.517Z,101808.29
2018-01-25T00:51:58.255Z,101807.86
2018-01-25T00:54:25.872Z,101803.28
2018-01-25T00:56:53.463Z,101814.70
2018-01-25T00:59:21.026Z,101805.59
2018-01-25T01:01:48.618Z,101806.57
2018-01-25T01:04:16.180Z,101801.87
2018-01-25T01:06:43.757Z,101799.27
2018-01-25T01:09:11.347Z,101797.09
2018-01-25T01:11:38.951Z,101806.73
2018-01-25T01:14:06.573Z,101807.31
2018-01-25T01:16:34.192Z,101807.07
2018-01-25T01:19:01.759Z,101801.14
2018-01-25T01:21:29.326Z,101804.16
2018-01-25T01:23:56.965Z,101805.48
2018-01-25T01:26:24.558Z,101797.77
2018-01-25T01:28:52.127Z,101792.53
2018-01-25T01:31:19.751Z,101791.87
2018-01-25T01:33:47.318Z,101793.09
2018-01-25T01:36:14.888Z,101791.33
2018-01-25T01:38:42.520Z,101779.36
2018-01-25T01:41:10.087Z,101764.98
2018-01-25T01:43:37.673Z,101760.25
2018-01-25T01:46:05.286Z,101759.50
2018-01-25T01:48:32.863Z,101753.88
2018-01-25T01:51:00.447Z,101746.59
2018-01-25T01:53:28.069Z,101746.99
2018-01-25T01:55:55.681Z,101745.81
2018-01-25T01:58:23.251Z,101746.19
2018-01-25T02:00:50.860Z,101743.59
2018-01-25T02:03:18.432Z,101739.25
2018-01-25T02:05:46.071Z,101738.07
2018-01-25T02:08:13.678Z,101737.70
2018-01-25T02:10:41.248Z,101735.02
2018-01-25T02:13:08.820Z,101733.70
2018-01-25T02:15:36.436Z,101727.42
2018-01-25T02:18:04.009Z,101723.84
2018-01-25T02:20:31.616Z,101718.25
2018-01-25T02:22:59.203Z,101716.64
2018-01-25T02:25:26.815Z,101706.83
2018-01-25T02:27:54.421Z,101712.06
2018-01-25T02:30:22.064Z,101712.59
2018-01-25T02:32:49.651Z,101702.26
2018-01-25T02:35:17.242Z,101699.73
2018-01-25T02:37:44.861Z,101696.28
2018-01-25T02:40:12.436Z,101697.11
2018-01-25T02:42:40.011Z,101686.28
2018-01-25T02:45:07.607Z,101687.65
2018-01-25T02:47:35.180Z,101684.70
2018-01-25T02:50:02.752Z,101684.87
2018-01-25T02:52:30.357Z,101681.84
2018-01-25T02:54:57.924Z,101679.81
2018-01-25T02:57:25.513Z,101677.91
2018-01-25T02:59:53.129Z,101682.31
2018-01-25T03:02:20.721Z,101676.30
2018-01-25T03:04:48.291Z,101674.59
2018-01-25T03:07:15.906Z,101660.87
2018-01-25T03:09:43.467Z,101658.86
2018-01-25T03:12:11.090Z,101654.81
2018-01-25T03:14:38.753Z,101653.53
2018-01-25T03:17:06.425Z,101656.20
2018-01-25T03:19:34.017Z,101642.92
2018-01-25T03:22:01.614Z,101643.42
2018-01-25T03:24:29.176Z,101643.60
2018-01-25T03:26:56.760Z,101636.26
2018-01-25T03:29:24.752Z,101639.22
2018-01-25T03:31:52.440Z,101640.20
2018-01-25T03:34:20.010Z,101635.97
2018-01-25T03:36:47.631Z,101641.07
2018-01-25T03:39:15.216Z,101638.88
2018-01-25T03:41:42.783Z,101635.81
2018-01-25T03:44:10.498Z,101636.28
2018-01-25T03:46:38.079Z,101634.72
2018-01-25T03:49:05.666Z,101634.56
2018-01-25T03:51:33.290Z,101638.55
2018-01-25T03:54:00.934Z,101642.44
2018-01-25T03:56:28.490Z,101639.95
2018-01-25T03:58:56.264Z,101639.98
2018-01-25T04:01:23.988Z,101644.16
2018-01-25T04:03:51.565Z,101650.36
2018-01-25T04:06:19.169Z,101652.53
2018-01-25T04:08:46.746Z,101652.53
2018-01-25T04:11:14.329Z,101653.09
2018-01-25T04:13:41.941Z,101649.36
2018-01-25T04:16:09.532Z,101647.35
2018-01-25T04:18:37.125Z,101653.47
2018-01-25T04:21:04.751Z,101646.30
2018-01-25T04:23:32.341Z,101651.81
2018-01-25T04:25:59.928Z,101651.03
2018-01-25T04:28:27.549Z,101645.87
2018-01-25T04:30:55.133Z,101646.78
2018-01-25T04:33:22.710Z,101650.14
2018-01-25T04:35:50.323Z,101642.37
2018-01-25T04:38:18.049Z,101642.98
2018-01-25T04:40:45.635Z,101650.87
2018-01-25T04:43:13.307Z,101657.80
2018-01-25T04:45:40.901Z,101650.91
2018-01-25T04:48:08.491Z,101645.79
2018-01-25T04:50:36.356Z,101645.36
2018-01-25T04:53:04.029Z,101646.69
2018-01-25T04:55:31.600Z,101653.20
2018-01-25T04:57:59.248Z,101660.61
2018-01-25T05:00:26.828Z,101653.89
2018-01-25T05:02:54.417Z,101655.23
2018-01-25T05:05:22.041Z,101654.37
2018-01-25T05:07:49.631Z,101652.19
2018-01-25T05:10:17.230Z,101648.22
2018-01-25T05:12:44.847Z,101657.37
2018-01-25T05:15:12.428Z,101650.11
2018-01-25T05:17:41.896Z,101658.05
2018-01-25T05:20:09.565Z,101656.17
2018-01-25T05:22:37.186Z,101655.86
2018-01-25T05:25:04.763Z,101651.97
2018-01-25T05:27:32.529Z,101648.49
2018-01-25T05:30:00.114Z,101652.38
2018-01-25T05:32:27.775Z,101649.31
2018-01-25T05:34:55.395Z,101649.31
2018-01-25T05:37:22.962Z,101655.27
2018-01-25T05:39:50.566Z,101657.49
2018-01-25T05:42:18.195Z,101652.83
2018-01-25T05:44:45.773Z,101653.59
2018-01-25T05:47:13.350Z,101651.51
2018-01-25T05:49:41.014Z,101650.57
2018-01-25T05:52:08.576Z,101654.08
2018-01-25T05:54:36.168Z,101650.58
2018-01-25T05:57:03.797Z,101647.05
2018-01-25T05:59:31.386Z,101644.69
2018-01-25T06:01:58.981Z,101641.48
2018-01-25T06:04:26.709Z,101639.10
2018-01-25T06:06:54.291Z,101637.98
2018-01-25T06:09:21.864Z,101633.98
2018-01-25T06:11:49.493Z,101638.30
2018-01-25T06:14:17.078Z,101632.16
2018-01-25T06:16:44.724Z,101633.91
2018-01-25T06:19:12.338Z,101620.91
2018-01-25T06:21:39.925Z,101621.44
2018-01-25T06:24:07.511Z,101620.22
2018-01-25T06:26:35.193Z,101628.23
2018-01-25T06:29:02.762Z,101620.66
2018-01-25T06:31:30.345Z,101609.64
2018-01-25T06:33:57.983Z,101610.65
2018-01-25T06:36:25.616Z,101616.28
2018-01-25T06:38:53.213Z,101614.67
2018-01-25T06:41:20.814Z,101608.69
2018-01-25T06:43:48.387Z,101611.00
2018-01-25T06:46:16.083Z,101604.64
2018-01-25T06:48:43.687Z,101604.88
2018-01-25T06:51:11.267Z,101608.44
2018-01-25T06:53:38.847Z,101597.92
2018-01-25T06:56:06.525Z,101601.50
2018-01-25T06:58:34.095Z,101600.48
2018-01-25T07:01:01.697Z,101588.89
2018-01-25T07:03:29.500Z,101588.48
2018-01-25T07:05:57.124Z,101586.09
2018-01-25T07:08:24.825Z,101579.34
2018-01-25T07:10:52.481Z,101575.06
2018-01-25T07:13:20.051Z,101590.58
2018-01-25T07:15:47.640Z,101587.78
2018-01-25T07:18:15.473Z,101588.63
2018-01-25T07:20:43.050Z,101594.86
2018-01-25T07:23:10.628Z,101588.66
2018-01-25T07:25:38.271Z,101587.66
2018-01-25T07:28:05.856Z,101597.81
2018-01-25T07:30:33.436Z,101592.53
2018-01-25T07:33:01.062Z,101591.75
2018-01-25T07:35:28.652Z,101589.27
2018-01-25T07:37:56.224Z,101589.95
2018-01-25T07:40:23.846Z,101591.06
2018-01-25T07:42:51.874Z,101590.02
2018-01-25T07:45:19.518Z,101583.61
2018-01-25T07:47:47.148Z,101582.44
2018-01-25T07:50:14.752Z,101581.98
2018-01-25T07:52:42.400Z,101569.36
2018-01-25T07:55:10.015Z,101568.30
2018-01-25T07:57:43.271Z,101571.57
2018-01-25T08:00:10.843Z,101571.22
2018-01-25T08:02:38.491Z,101570.07
2018-01-25T08:05:06.085Z,101578.11
2018-01-25T08:07:33.694Z,101571.75
2018-01-25T08:10:01.279Z,101572.91
2018-01-25T08:12:28.861Z,101570.80
2018-01-25T08:14:56.485Z,101566.36
2018-01-25T08:17:24.057Z,101556.81
2018-01-25T08:19:51.649Z,101554.45
2018-01-25T08:22:19.281Z,101549.27
2018-01-25T08:24:46.915Z,101541.45
2018-01-25T08:27:14.505Z,101533.25
2018-01-25T08:29:42.127Z,101538.13
2018-01-25T08:32:09.738Z,101532.82
2018-01-25T08:34:37.298Z,101524.31
2018-01-25T08:37:04.920Z,101521.46
2018-01-25T08:39:32.491Z,101527.61
2018-01-25T08:42:00.064Z,101520.53
2018-01-25T08:44:27.663Z,101516.27
2018-01-25T08:46:55.220Z,101514.70
2018-01-25T08:49:22.799Z,101511.29
2018-01-25T08:51:50.412Z,101510.31
2018-01-25T08:54:18.001Z,101507.95
2018-01-25T08:56:45.581Z,101506.30
2018-01-25T08:59:13.183Z,101502.91
2018-01-25T09:01:40.763Z,101492.45
2018-01-25T09:04:08.350Z,101483.51
2018-01-25T09:06:35.948Z,101472.37
2018-01-25T09:09:03.627Z,101472.02
2018-01-25T09:11:31.484Z,101472.59
2018-01-25T09:13:59.099Z,101467.13
2018-01-25T09:16:26.675Z,101451.21
2018-01-25T09:18:54.320Z,101456.00
2018-01-25T09:21:21.917Z,101449.47
2018-01-25T09:23:49.476Z,101444.14
2018-01-25T09:26:17.044Z,101440.28
2018-01-25T09:28:44.648Z,101434.20
2018-01-25T09:31:12.228Z,101422.58
2018-01-25T09:33:39.795Z,101425.88
2018-01-25T09:36:07.398Z,101411.74
2018-01-25T09:38:34.972Z,101402.20
2018-01-25T09:41:02.544Z,101401.53
2018-01-25T09:43:30.215Z,101392.28
2018-01-25T09:45:57.799Z,101384.46
2018-01-25T09:48:25.392Z,101372.31
2018-01-25T09:50:53.043Z,101374.45
2018-01-25T09:53:20.633Z,101369.70
2018-01-25T09:55:48.220Z,101357.20
2018-01-25T09:58:15.838Z,101356.75
2018-01-25T10:00:43.493Z,101348.42
2018-01-25T10:03:11.080Z,101342.80
2018-01-25T10:05:38.687Z,101346.81
2018-01-25T10:08:06.412Z,101335.03
2018-01-25T10:10:33.990Z,101331.91
2018-01-25T10:13:01.589Z,101323.27
2018-01-25T10:15:29.163Z,101326.00
2018-01-25T10:17:56.732Z,101318.38
2018-01-25T10:20:24.355Z,101314.82
2018-01-25T10:22:51.937Z,101306.95
2018-01-25T10:25:19.534Z,101297.35
2018-01-25T10:27:47.161Z,101298.35
2018-01-25T10:30:14.755Z,101293.08
2018-01-25T10:32:42.436Z,101295.80
2018-01-25T10:35:10.064Z,101276.53
2018-01-25T10:37:37.742Z,101277.12
2018-01-25T10:40:05.324Z,101279.79
2018-01-25T10:42:33.085Z,101251.90
2018-01-25T10:45:00.658Z,101243.87
2018-01-25T10:47:28.222Z,101239.02
2018-01-25T10:49:55.836Z,101235.82
2018-01-25T10:52:23.441Z,101229.78
2018-01-25T10:54:50.995Z,101227.75
2018-01-25T10:57:18.612Z,101222.45
2018-01-25T10:59:46.179Z,101216.16
2018-01-25T11:02:13.823Z,101215.05
2018-01-25T11:04:41.447Z,101208.56
2018-01-25T11:07:09.020Z,101203.83
2018-01-25T11:09:36.586Z,101196.59
2018-01-25T11:12:04.213Z,101198.77
2018-01-25T11:14:31.770Z,101194.27
2018-01-25T11:16:59.355Z,101189.84
2018-01-25T11:19:26.971Z,101188.90
2018-01-25T11:21:54.529Z,101192.31
2018-01-25T11:24:22.106Z,101187.70
2018-01-25T11:26:49.700Z,101183.25
2018-01-25T11:29:17.260Z,101176.22
2018-01-25T11:31:44.815Z,101172.51
2018-01-25T11:34:12.425Z,101171.31
2018-01-25T11:36:39.964Z,101168.25
2018-01-25T11:39:07.524Z,101163.44
2018-01-25T11:41:35.125Z,101159.14
2018-01-25T11:44:02.688Z,101158.02
2018-01-25T11:46:30.297Z,101149.84
2018-01-25T11:48:57.883Z,101155.17
2018-01-25T11:51:25.449Z,101142.93
2018-01-25T11:53:53.002Z,101143.76
2018-01-25T11:56:20.601Z,101138.53
2018-01-25T11:58:48.152Z,101136.59
2018-01-25T12:01:15.718Z,101132.56
2018-01-25T12:03:43.312Z,101136.43
2018-01-25T12:06:10.889Z,101138.67
2018-01-25T12:08:38.444Z,101132.47
2018-01-25T12:11:06.034Z,101132.47
2018-01-25T12:13:33.648Z,101137.41
2018-01-25T12:16:01.225Z,101135.46
2018-01-25T12:18:28.852Z,101128.84
2018-01-25T12:20:56.499Z,101127.24
2018-01-25T12:23:24.061Z,101125.84
2018-01-25T12:25:51.655Z,101127.32
2018-01-25T12:28:19.235Z,101127.97
2018-01-25T12:30:46.802Z,101132.86
2018-01-25T12:33:14.421Z,101132.02
2018-01-25T12:35:41.974Z,101136.42
2018-01-25T12:38:09.539Z,101137.45
2018-01-25T12:40:37.171Z,101137.61
2018-01-25T12:43:04.776Z,101134.95
2018-01-25T12:45:32.508Z,101131.30
2018-01-25T12:48:00.095Z,101135.81
2018-01-25T12:50:27.657Z,101136.64
2018-01-25T12:52:55.243Z,101142.17
2018-01-25T12:55:22.833Z,101148.78
2018-01-25T12:57:50.388Z,101142.41
2018-01-25T13:00:17.955Z,101144.50
2018-01-25T13:02:45.790Z,101137.25
2018-01-25T13:05:13.376Z,101131.64
2018-01-25T13:07:40.947Z,101133.18
2018-01-25T13:10:08.528Z,101136.83
2018-01-25T13:12:36.124Z,101129.55
2018-01-25T13:15:03.675Z,101130.44
2018-01-25T13:17:31.498Z,101130.27
2018-01-25T13:19:59.075Z,101122.84
2018-01-25T13:22:26.625Z,101125.95
2018-01-25T13:24:54.253Z,101130.30
2018-01-25T13:27:21.814Z,101133.48
2018-01-25T13:29:49.413Z,101130.42
2018-01-25T13:32:19.689Z,101127.23
2018-01-25T13:34:47.278Z,101129.48
2018-01-25T13:37:15.205Z,101126.01
2018-01-25T13:39:42.867Z,101124.00
2018-01-25T13:42:10.481Z,101123.08
2018-01-25T13:44:38.051Z,101124.78
2018-01-25T13:47:05.707Z,101121.67
2018-01-25T13:49:33.304Z,101121.41
2018-01-25T13:52:00.960Z,101121.09
2018-01-25T13:54:28.643Z,101121.53
2018-01-25T13:56:56.244Z,101115.92
2018-01-25T13:59:23.804Z,101111.92
2018-01-25T14:01:51.422Z,101108.84
2018-01-25T14:04:19.014Z,101109.86
2018-01-25T14:06:46.584Z,101112.15
2018-01-25T14:09:15.267Z,101110.50
2018-01-25T14:11:42.867Z,101109.73
2018-01-25T14:14:10.461Z,101111.63
2018-01-25T14:16:38.080Z,101116.77
2018-01-25T14:19:05.640Z,101103.92
2018-01-25T14:21:33.212Z,101117.02
2018-01-25T14:24:00.795Z,101116.38
2018-01-25T14:26:28.361Z,101118.41
2018-01-25T14:28:55.928Z,101130.91
2018-01-25T14:31:23.578Z,101132.35
2018-01-25T14:33:51.191Z,101130.00
2018-01-25T14:36:18.734Z,101126.53
2018-01-25T14:38:46.367Z,101129.20
2018-01-25T14:41:13.980Z,101136.56
2018-01-25T14:43:41.560Z,101131.66
2018-01-25T14:46:09.187Z,101128.08
2018-01-25T14:48:36.844Z,101129.80
2018-01-25T14:51:04.406Z,101125.51
2018-01-25T14:53:32.176Z,101120.09
2018-01-25T14:55:59.745Z,101116.91
2018-01-25T14:58:27.294Z,101117.73
2018-01-25T15:00:54.877Z,101115.92
2018-01-25T15:03:22.432Z,101111.05
2018-01-25T15:05:49.980Z,101111.20
2018-01-25T15:08:17.577Z,101106.02
2018-01-25T15:10:45.141Z,101108.19
2018-01-25T15:13:12.714Z,101113.97
2018-01-25T15:15:40.318Z,101110.14
2018-01-25T15:18:07.892Z,101108.86
2018-01-25T15:20:35.462Z,101107.39
2018-01-25T15:23:03.119Z,101109.66
2018-01-25T15:25:36.340Z,101107.13
2018-01-25T15:28:03.913Z,101101.17
2018-01-25T15:30:31.482Z,101104.45
2018-01-25T15:32:59.064Z,101110.47
2018-01-25T15:35:26.745Z,101109.84
2018-01-25T15:37:54.573Z,101112.31
2018-01-25T15:40:22.135Z,101120.05
2018-01-25T15:42:49.737Z,101108.78
2018-01-25T15:45:17.297Z,101108.52
2018-01-25T15:47:44.869Z,101113.41
2018-01-25T15:50:12.486Z,101121.16
2018-01-25T15:52:40.120Z,101112.70
2018-01-25T15:55:07.679Z,101117.76
2018-01-25T15:57:35.254Z,101118.50
2018-01-25T16:00:02.842Z,101113.36
2018-01-25T16:02:30.391Z,101113.11
2018-01-25T16:04:58.000Z,101114.55
2018-01-25T16:07:25.890Z,101117.41
2018-01-25T16:09:53.552Z,101113.55
2018-01-25T16:12:21.186Z,101111.31
2018-01-25T16:14:48.866Z,101114.92
2018-01-25T16:17:16.471Z,101113.47
2018-01-25T16:19:44.138Z,101116.25
2018-01-25T16:22:11.744Z,101120.16
2018-01-25T16:24:39.507Z,101124.11
2018-01-25T16:27:07.014Z,101130.70
2018-01-25T16:29:34.654Z,101126.95
2018-01-25T16:32:02.217Z,101128.97
2018-01-25T16:34:29.799Z,101127.42
2018-01-25T16:36:57.363Z,101143.40
2018-01-25T16:39:24.963Z,101136.06
2018-01-25T16:41:52.581Z,101142.70
2018-01-25T16:44:20.162Z,101137.48
2018-01-25T16:46:47.734Z,101140.31
2018-01-25T16:49:15.373Z,101138.94
2018-01-25T16:51:42.940Z,101136.00
2018-01-25T16:54:10.542Z,101145.73
2018-01-25T16:56:38.151Z,101144.37
2018-01-25T16:59:05.735Z,101147.67
2018-01-25T17:01:33.291Z,101141.43
2018-01-25T17:04:00.903Z,101149.45
2018-01-25T17:06:28.485Z,101152.31
2018-01-25T17:08:56.112Z,101151.16
2018-01-25T17:11:23.721Z,101152.31
2018-01-25T17:13:51.305Z,101150.14
2018-01-25T17:16:18.880Z,101155.56
2018-01-25T17:18:46.497Z,101157.77
2018-01-25T17:21:14.057Z,101161.04
2018-01-25T17:23:41.619Z,101169.22
2018-01-25T17:26:09.250Z,101164.52
2018-01-25T17:28:36.840Z,101165.86
2018-01-25T17:31:04.437Z,101165.95
2018-01-25T17:33:32.038Z,101172.61
2018-01-25T17:35:59.616Z,101170.95
2018-01-25T17:38:27.162Z,101169.00
2018-01-25T17:40:54.755Z,101165.84
2018-01-25T17:43:22.701Z,101173.85
2018-01-25T17:45:50.286Z,101158.98
2018-01-25T17:48:17.888Z,101166.45
2018-01-25T17:50:45.465Z,101166.88
2018-01-25T17:53:13.027Z,101166.51
2018-01-25T17:55:41.196Z,101170.07
2018-01-25T17:58:08.831Z,101175.21
2018-01-25T18:00:36.420Z,101179.63
2018-01-25T18:03:05.476Z,101183.94
2018-01-25T18:05:33.141Z,101183.69
2018-01-25T18:08:00.696Z,101185.41
2018-01-25T18:10:28.403Z,101184.08
2018-01-25T18:12:55.960Z,101183.56
2018-01-25T18:15:23.522Z,101174.84
2018-01-25T18:17:51.123Z,101177.45
2018-01-25T18:20:19.108Z,101181.17
2018-01-25T18:22:46.682Z,101177.47
2018-01-25T18:25:14.297Z,101180.30
2018-01-25T18:27:41.899Z,101165.36
2018-01-25T18:30:09.642Z,101184.61
2018-01-25T18:32:37.263Z,101187.50
2018-01-25T18:35:04.819Z,101185.96
2018-01-25T18:37:32.381Z,101183.02
2018-01-25T18:40:00.051Z,101182.02
2018-01-25T18:42:27.634Z,101179.98
2018-01-25T18:44:55.385Z,101184.91
2018-01-25T18:47:23.044Z,101189.67
2018-01-25T18:49:50.593Z,101184.34
2018-01-25T18:52:18.168Z,101178.05
2018-01-25T18:54:45.765Z,101183.84
2018-01-25T18:57:13.340Z,101186.84
2018-01-25T18:59:40.914Z,101183.98
2018-01-25T19:02:08.521Z,101191.58
2018-01-25T19:04:36.080Z,101186.83
2018-01-25T19:07:03.734Z,101186.09
2018-01-25T19:09:31.339Z,101177.23
2018-01-25T19:11:59.038Z,101181.31
2018-01-25T19:14:26.974Z,101184.39
2018-01-25T19:16:54.573Z,101183.47
2018-01-25T19:19:22.150Z,101184.33
2018-01-25T19:21:49.713Z,101192.03
2018-01-25T19:24:17.305Z,101192.59
2018-01-25T19:26:44.905Z,101197.28
2018-01-25T19:29:12.479Z,101205.70
2018-01-25T19:31:40.146Z,101206.21
2018-01-25T19:34:07.797Z,101208.45
2018-01-25T19:36:35.473Z,101205.38
2018-01-25T19:39:03.167Z,101203.84
2018-01-25T19:41:30.737Z,101203.98
2018-01-25T19:43:58.304Z,101207.21
2018-01-25T19:46:25.891Z,101202.45
2018-01-25T19:48:53.470Z,101201.23
2018-01-25T19:51:21.034Z,101199.08
2018-01-25T19:53:48.694Z,101196.46
2018-01-25T19:56:16.256Z,101198.94
2018-01-25T19:58:43.824Z,101203.05
2018-01-25T20:01:11.423Z,101198.47
2018-01-25T20:03:38.973Z,101203.74
2018-01-25T20:06:06.555Z,101200.20
2018-01-25T20:08:34.154Z,101195.17
2018-01-25T20:11:01.711Z,101197.48
2018-01-25T20:13:29.281Z,101203.58
2018-01-25T20:15:56.881Z,101200.48
2018-01-25T20:18:24.435Z,101205.84
2018-01-25T20:20:52.002Z,101203.20
2018-01-25T20:23:19.627Z,101206.92
2018-01-25T20:25:47.191Z,101210.27
2018-01-25T20:28:14.761Z,101208.36
2018-01-25T20:30:42.363Z,101211.90
2018-01-25T20:33:09.950Z,101205.79
2018-01-25T20:35:38.105Z,101208.45
2018-01-25T20:38:07.750Z,101218.30
2018-01-25T20:40:37.111Z,101203.49
2018-01-25T20:43:05.214Z,101214.77
2018-01-25T20:45:34.872Z,101217.84
2018-01-25T20:48:04.033Z,101219.78
2018-01-25T20:50:31.803Z,101223.33
2018-01-25T20:52:59.959Z,101213.10
2018-01-25T20:55:27.932Z,101209.89
2018-01-25T20:57:55.497Z,101210.68
2018-01-25T21:00:23.144Z,101215.50
2018-01-25T21:02:50.704Z,101213.25
2018-01-25T21:05:18.524Z,101215.02
2018-01-25T21:07:46.138Z,101218.44
2018-01-25T21:10:13.782Z,101215.23
2018-01-25T21:12:41.466Z,101197.58
2018-01-25T21:15:09.076Z,101218.70
2018-01-25T21:17:36.655Z,101215.63
2018-01-25T21:20:04.291Z,101220.84
2018-01-25T21:22:31.901Z,101216.39
2018-01-25T21:24:59.540Z,101219.34
2018-01-25T21:27:27.105Z,101219.24
2018-01-25T21:29:54.694Z,101219.03
2018-01-25T21:32:22.256Z,101217.98
2018-01-25T21:34:50.007Z,101223.57
2018-01-25T21:37:18.544Z,101223.82
2018-01-25T21:39:46.123Z,101224.70
2018-01-25T21:42:13.730Z,101226.26
2018-01-25T21:44:41.417Z,101230.25
2018-01-25T21:47:08.974Z,101225.03
2018-01-25T21:49:36.544Z,101225.57
2018-01-25T21:52:04.262Z,101229.66
2018-01-25T21:54:31.832Z,101229.29
2018-01-25T21:56:59.656Z,101238.06
2018-01-25T21:59:27.246Z,101233.56
2018-01-25T22:01:54.806Z,101229.77
2018-01-25T22:04:22.755Z,101231.28
2018-01-25T22:06:50.375Z,101233.07
2018-01-25T22:09:17.971Z,101230.91
2018-01-25T22:11:45.579Z,101234.67
2018-01-25T22:14:13.636Z,101232.91
2018-01-25T22:16:41.199Z,101226.61
2018-01-25T22:19:08.781Z,101232.33
2018-01-25T22:21:36.614Z,101235.07
2018-01-25T22:24:04.463Z,101236.54
2018-01-25T22:26:32.053Z,101232.44
2018-01-25T22:28:59.678Z,101236.44
2018-01-25T22:31:27.236Z,101234.33
2018-01-25T22:33:54.802Z,101229.92
2018-01-25T22:36:22.430Z,101228.73
2018-01-25T22:38:49.995Z,101227.16
2018-01-25T22:41:17.721Z,101224.72
2018-01-25T22:43:45.365Z,101228.02
2018-01-25T22:46:13.017Z,101224.61
2018-01-25T22:48:40.626Z,101226.30
2018-01-25T22:51:08.237Z,101215.77
2018-01-25T22:53:35.844Z,101221.81
2018-01-25T22:56:03.409Z,101221.81
2018-01-25T22:58:31.071Z,101221.13
2018-01-25T23:00:58.700Z,101221.70
2018-01-25T23:03:26.309Z,101211.36
2018-01-25T23:05:53.874Z,101214.42
2018-01-25T23:08:21.427Z,101210.67
2018-01-25T23:10:49.023Z,101215.27
2018-01-25T23:13:16.602Z,101211.89
2018-01-25T23:15:44.177Z,101214.31
2018-01-25T23:18:12.020Z,101185.55
2018-01-25T23:20:39.586Z,101207.95
2018-01-25T23:23:07.167Z,101212.67
2018-01-25T23:25:34.754Z,101209.48
2018-01-25T23:28:02.326Z,101215.96
2018-01-25T23:30:29.940Z,101214.28
2018-01-25T23:32:57.559Z,101197.73
2018-01-25T23:35:25.246Z,101209.45
2018-01-25T23:37:52.803Z,101206.20
2018-01-25T23:40:20.402Z,101210.37
2018-01-25T23:42:47.969Z,101207.69
2018-01-25T23:45:15.561Z,101204.02
2018-01-25T23:47:43.354Z,101206.16
2018-01-25T23:50:11.028Z,101211.63
2018-01-25T23:52:38.588Z,101209.84
2018-01-25T23:55:07.491Z,101212.75
2018-01-25T23:57:35.242Z,101185.71
